Time,TemperatureF,DewpointF,PressureIn,WindDirection,WindDirectionDegrees,WindSpeedMPH,WindSpeedGustMPH,Humidity,HourlyPrecipIn,Conditions,Clouds,dailyrainin,SoftwareType,DateUTC
2013-05-01 00:01:00,66.7,54.5,28.76,North,-999,-999.0,-999.0,65,0.00,,,0.00,WSDL version 420,2013-05-01 05:01:00,
2013-05-01 00:06:00,66.6,54.7,28.76,North,-999,-999.0,-999.0,66,0.00,,,0.00,WSDL version 420,2013-05-01 05:06:00,
2013-05-01 00:11:00,67.0,55.5,28.76,North,-999,-999.0,-999.0,67,0.00,,,0.00,WSDL version 420,2013-05-01 05:11:00,
2013-05-01 00:16:00,67.1,55.8,28.76,North,-999,-999.0,-999.0,67,0.00,,,0.00,WSDL version 420,2013-05-01 05:16:00,
2013-05-01 00:21:00,67.1,56.0,28.76,North,-999,-999.0,-999.0,68,0.00,,,0.00,WSDL version 420,2013-05-01 05:21:00,
2013-05-01 00:26:00,67.0,56.1,28.76,North,-999,-999.0,-999.0,68,0.00,,,0.00,WSDL version 420,2013-05-01 05:26:00,
2013-05-01 00:31:00,66.8,56.0,28.76,North,-999,-999.0,-999.0,68,0.00,,,0.00,WSDL version 420,2013-05-01 05:31:00,
2013-05-01 00:36:00,66.7,55.9,28.76,North,-999,-999.0,-999.0,68,0.00,,,0.00,WSDL version 420,2013-05-01 05:36:00,
2013-05-01 00:41:00,66.7,56.2,28.76,North,-999,-999.0,-999.0,69,0.00,,,0.00,WSDL version 420,2013-05-01 05:41:00,
2013-05-01 00:46:00,66.9,56.7,28.79,North,-999,-999.0,-999.0,70,0.00,,,0.00,WSDL version 420,2013-05-01 05:46:00,
2013-05-01 00:51:00,66.9,56.8,28.79,North,-999,-999.0,-999.0,71,0.00,,,0.00,WSDL version 420,2013-05-01 05:51:00,
2013-05-01 00:56:00,67.1,57.4,28.79,North,-999,-999.0,-999.0,71,0.00,,,0.00,WSDL version 420,2013-05-01 05:56:00,
2013-05-01 01:01:00,67.2,57.9,28.79,North,-999,-999.0,-999.0,72,0.00,,,0.00,WSDL version 420,2013-05-01 06:01:00,
2013-05-01 01:06:00,67.3,57.8,28.79,North,-999,-999.0,-999.0,72,0.00,,,0.00,WSDL version 420,2013-05-01 06:06:00,
2013-05-01 01:11:00,67.3,58.0,28.79,North,-999,-999.0,-999.0,72,0.00,,,0.00,WSDL version 420,2013-05-01 06:11:00,
2013-05-01 01:16:00,67.6,58.4,28.79,North,-999,-999.0,-999.0,72,0.00,,,0.00,WSDL version 420,2013-05-01 06:16:00,
2013-05-01 01:21:00,67.8,59.3,28.79,North,-999,-999.0,-999.0,73,0.00,,,0.00,WSDL version 420,2013-05-01 06:21:00,
2013-05-01 01:26:00,67.8,59.1,28.79,North,-999,-999.0,-999.0,74,0.00,,,0.00,WSDL version 420,2013-05-01 06:26:00,
2013-05-01 01:31:00,67.8,58.9,28.79,North,-999,-999.0,-999.0,72,0.00,,,0.00,WSDL version 420,2013-05-01 06:31:00,
2013-05-01 01:36:00,67.8,59.2,28.79,North,-999,-999.0,-999.0,75,0.00,,,0.00,WSDL version 420,2013-05-01 06:36:00,
2013-05-01 01:41:00,67.8,59.4,28.79,North,-999,-999.0,-999.0,75,0.00,,,0.00,WSDL version 420,2013-05-01 06:41:00,
2013-05-01 01:46:00,67.8,59.5,28.76,North,-999,-999.0,-999.0,74,0.00,,,0.00,WSDL version 420,2013-05-01 06:46:00,
2013-05-01 01:51:00,67.8,59.4,28.76,North,-999,-999.0,-999.0,74,0.00,,,0.00,WSDL version 420,2013-05-01 06:51:00,
2013-05-01 01:56:00,67.8,59.1,28.76,North,-999,-999.0,-999.0,73,0.00,,,0.00,WSDL version 420,2013-05-01 06:56:00,
2013-05-01 02:01:00,67.7,59.5,28.76,North,-999,-999.0,-999.0,75,0.00,,,0.00,WSDL version 420,2013-05-01 07:01:00,
2013-05-01 02:06:00,67.6,59.4,28.76,North,-999,-999.0,-999.0,75,0.00,,,0.00,WSDL version 420,2013-05-01 07:06:00,
2013-05-01 02:11:00,67.6,59.0,28.76,North,-999,-999.0,-999.0,73,0.00,,,0.00,WSDL version 420,2013-05-01 07:11:00,
2013-05-01 02:16:00,67.6,58.7,28.79,North,-999,-999.0,-999.0,73,0.00,,,0.00,WSDL version 420,2013-05-01 07:16:00,
2013-05-01 02:21:00,67.3,58.7,28.79,North,-999,-999.0,-999.0,74,0.00,,,0.00,WSDL version 420,2013-05-01 07:21:00,
2013-05-01 02:26:00,67.1,58.6,28.79,North,-999,-999.0,-999.0,74,0.00,,,0.00,WSDL version 420,2013-05-01 07:26:00,
2013-05-01 02:31:00,66.8,58.8,28.76,North,-999,-999.0,-999.0,76,0.00,,,0.00,WSDL version 420,2013-05-01 07:31:00,
2013-05-01 02:36:00,66.7,59.1,28.76,North,-999,-999.0,-999.0,77,0.00,,,0.00,WSDL version 420,2013-05-01 07:36:00,
2013-05-01 02:41:00,66.7,58.1,28.76,North,-999,-999.0,-999.0,73,0.00,,,0.00,WSDL version 420,2013-05-01 07:41:00,
2013-05-01 02:46:00,66.5,57.9,28.76,North,-999,-999.0,-999.0,75,0.00,,,0.00,WSDL version 420,2013-05-01 07:46:00,
2013-05-01 02:51:00,66.3,59.0,28.76,North,-999,-999.0,-999.0,78,0.00,,,0.00,WSDL version 420,2013-05-01 07:51:00,
2013-05-01 02:56:00,66.2,59.1,28.76,North,-999,-999.0,-999.0,78,0.00,,,0.00,WSDL version 420,2013-05-01 07:56:00,
2013-05-01 03:01:00,66.2,58.8,28.76,North,-999,-999.0,-999.0,76,0.00,,,0.00,WSDL version 420,2013-05-01 08:01:00,
2013-05-01 03:06:00,66.2,58.2,28.76,North,-999,-999.0,-999.0,76,0.00,,,0.00,WSDL version 420,2013-05-01 08:06:00,
2013-05-01 03:11:00,66.0,58.7,28.76,North,-999,-999.0,-999.0,78,0.00,,,0.00,WSDL version 420,2013-05-01 08:11:00,
2013-05-01 03:16:00,66.0,59.0,28.76,North,-999,-999.0,-999.0,78,0.00,,,0.00,WSDL version 420,2013-05-01 08:16:00,
2013-05-01 03:21:00,66.0,59.3,28.76,North,-999,-999.0,-999.0,80,0.00,,,0.00,WSDL version 420,2013-05-01 08:21:00,
2013-05-01 03:26:00,65.8,59.7,28.76,North,-999,-999.0,-999.0,80,0.00,,,0.00,WSDL version 420,2013-05-01 08:26:00,
2013-05-01 03:31:00,65.8,59.6,28.76,North,-999,-999.0,-999.0,80,0.00,,,0.00,WSDL version 420,2013-05-01 08:31:00,
2013-05-01 03:36:00,65.8,59.2,28.76,North,-999,-999.0,-999.0,79,0.00,,,0.00,WSDL version 420,2013-05-01 08:36:00,
2013-05-01 03:41:00,65.8,58.7,28.76,North,-999,-999.0,-999.0,77,0.00,,,0.00,WSDL version 420,2013-05-01 08:41:00,
2013-05-01 03:46:00,65.8,58.6,28.76,North,-999,-999.0,-999.0,78,0.00,,,0.00,WSDL version 420,2013-05-01 08:46:00,
2013-05-01 03:51:00,65.7,58.5,28.76,North,-999,-999.0,-999.0,77,0.00,,,0.00,WSDL version 420,2013-05-01 08:51:00,
2013-05-01 03:56:00,65.7,58.5,28.76,North,-999,-999.0,-999.0,78,0.00,,,0.00,WSDL version 420,2013-05-01 08:56:00,
2013-05-01 04:01:00,65.7,58.7,28.76,North,-999,-999.0,-999.0,78,0.00,,,0.00,WSDL version 420,2013-05-01 09:01:00,
2013-05-01 04:06:00,65.7,59.0,28.76,North,-999,-999.0,-999.0,79,0.00,,,0.00,WSDL version 420,2013-05-01 09:06:00,
2013-05-01 04:11:00,65.7,58.9,28.76,North,-999,-999.0,-999.0,78,0.00,,,0.00,WSDL version 420,2013-05-01 09:11:00,
2013-05-01 04:16:00,65.8,59.4,28.76,North,-999,-999.0,-999.0,80,0.00,,,0.00,WSDL version 420,2013-05-01 09:16:00,
2013-05-01 04:21:00,65.8,59.3,28.76,North,-999,-999.0,-999.0,79,0.00,,,0.00,WSDL version 420,2013-05-01 09:21:00,
2013-05-01 04:26:00,65.8,59.5,28.76,North,-999,-999.0,-999.0,81,0.00,,,0.00,WSDL version 420,2013-05-01 09:26:00,
2013-05-01 04:31:00,65.9,59.7,28.76,North,-999,-999.0,-999.0,81,0.00,,,0.00,WSDL version 420,2013-05-01 09:31:00,
2013-05-01 04:36:00,65.9,60.1,28.76,North,-999,-999.0,-999.0,81,0.00,,,0.00,WSDL version 420,2013-05-01 09:36:00,
2013-05-01 04:41:00,65.9,59.7,28.76,North,-999,-999.0,-999.0,80,0.00,,,0.00,WSDL version 420,2013-05-01 09:41:00,
2013-05-01 04:46:00,66.0,59.9,28.73,North,-999,-999.0,-999.0,81,0.00,,,0.00,WSDL version 420,2013-05-01 09:46:00,
2013-05-01 04:51:00,66.0,60.0,28.73,North,-999,-999.0,-999.0,81,0.00,,,0.00,WSDL version 420,2013-05-01 09:51:00,
2013-05-01 04:56:00,66.0,60.1,28.73,North,-999,-999.0,-999.0,81,0.00,,,0.00,WSDL version 420,2013-05-01 09:56:00,
2013-05-01 05:01:00,66.1,59.9,28.73,North,-999,-999.0,-999.0,80,0.00,,,0.00,WSDL version 420,2013-05-01 10:01:00,
2013-05-01 05:06:00,66.2,59.9,28.73,North,-999,-999.0,-999.0,80,0.00,,,0.00,WSDL version 420,2013-05-01 10:06:00,
2013-05-01 05:11:00,66.2,59.9,28.73,North,-999,-999.0,-999.0,80,0.00,,,0.00,WSDL version 420,2013-05-01 10:11:00,
2013-05-01 05:16:00,66.2,59.9,28.73,North,-999,-999.0,-999.0,80,0.00,,,0.00,WSDL version 420,2013-05-01 10:16:00,
2013-05-01 05:21:00,66.3,60.0,28.73,North,-999,-999.0,-999.0,80,0.00,,,0.00,WSDL version 420,2013-05-01 10:21:00,
2013-05-01 05:26:00,66.4,60.0,28.73,North,-999,-999.0,-999.0,80,0.00,,,0.00,WSDL version 420,2013-05-01 10:26:00,
2013-05-01 05:31:00,66.4,60.0,28.73,North,-999,-999.0,-999.0,80,0.00,,,0.00,WSDL version 420,2013-05-01 10:31:00,
2013-05-01 05:36:00,66.4,60.1,28.73,North,-999,-999.0,-999.0,81,0.00,,,0.00,WSDL version 420,2013-05-01 10:36:00,
2013-05-01 05:41:00,66.5,60.2,28.73,North,-999,-999.0,-999.0,80,0.00,,,0.00,WSDL version 420,2013-05-01 10:41:00,
2013-05-01 05:46:00,66.6,60.5,28.76,North,-999,-999.0,-999.0,81,0.00,,,0.00,WSDL version 420,2013-05-01 10:46:00,
2013-05-01 05:56:00,66.7,60.5,28.76,North,-999,-999.0,-999.0,80,0.00,,,0.00,WSDL version 420,2013-05-01 10:56:00,
2013-05-01 06:01:00,66.7,60.5,28.76,North,-999,-999.0,-999.0,80,0.00,,,0.00,WSDL version 420,2013-05-01 11:01:00,
2013-05-01 06:06:00,66.9,60.5,28.76,North,-999,-999.0,-999.0,80,0.00,,,0.00,WSDL version 420,2013-05-01 11:06:00,
2013-05-01 06:11:00,66.9,60.6,28.76,North,-999,-999.0,-999.0,80,0.00,,,0.00,WSDL version 420,2013-05-01 11:11:00,
2013-05-01 06:16:00,66.9,60.4,28.76,North,-999,-999.0,-999.0,79,0.00,,,0.00,WSDL version 420,2013-05-01 11:16:00,
2013-05-01 06:21:00,67.0,60.6,28.76,North,-999,-999.0,-999.0,80,0.00,,,0.00,WSDL version 420,2013-05-01 11:21:00,
2013-05-01 06:26:00,67.1,60.6,28.76,North,-999,-999.0,-999.0,80,0.00,,,0.00,WSDL version 420,2013-05-01 11:26:00,
2013-05-01 06:31:00,67.1,60.4,28.79,North,-999,-999.0,-999.0,79,0.00,,,0.00,WSDL version 420,2013-05-01 11:31:00,
2013-05-01 06:36:00,67.1,60.4,28.79,North,-999,-999.0,-999.0,79,0.00,,,0.00,WSDL version 420,2013-05-01 11:36:00,
2013-05-01 06:41:00,67.1,60.4,28.79,North,-999,-999.0,-999.0,79,0.00,,,0.00,WSDL version 420,2013-05-01 11:41:00,
2013-05-01 06:46:00,67.3,60.9,28.79,North,-999,-999.0,-999.0,80,0.00,,,0.00,WSDL version 420,2013-05-01 11:46:00,
2013-05-01 06:51:00,67.3,60.6,28.79,North,-999,-999.0,-999.0,79,0.00,,,0.00,WSDL version 420,2013-05-01 11:51:00,
2013-05-01 06:56:00,67.3,60.6,28.79,North,-999,-999.0,-999.0,79,0.00,,,0.00,WSDL version 420,2013-05-01 11:56:00,
2013-05-01 07:06:00,67.3,60.6,28.79,North,-999,-999.0,-999.0,79,0.00,,,0.00,WSDL version 420,2013-05-01 12:06:00,
2013-05-01 07:11:00,67.3,60.6,28.79,North,-999,-999.0,-999.0,79,0.00,,,0.00,WSDL version 420,2013-05-01 12:11:00,
2013-05-01 07:16:00,67.5,60.7,28.76,North,-999,-999.0,-999.0,79,0.00,,,0.00,WSDL version 420,2013-05-01 12:16:00,
2013-05-01 07:21:00,67.5,60.7,28.76,North,-999,-999.0,-999.0,79,0.00,,,0.00,WSDL version 420,2013-05-01 12:21:00,
2013-05-01 07:26:00,67.5,60.7,28.76,North,-999,-999.0,-999.0,79,0.00,,,0.00,WSDL version 420,2013-05-01 12:26:00,
2013-05-01 07:31:00,67.5,60.8,28.79,North,-999,-999.0,-999.0,79,0.00,,,0.00,WSDL version 420,2013-05-01 12:31:00,
2013-05-01 07:36:00,67.6,60.9,28.79,North,-999,-999.0,-999.0,79,0.00,,,0.00,WSDL version 420,2013-05-01 12:36:00,
2013-05-01 07:41:00,67.7,61.0,28.79,North,-999,-999.0,-999.0,79,0.00,,,0.00,WSDL version 420,2013-05-01 12:41:00,
2013-05-01 07:46:00,67.8,60.8,28.82,North,-999,-999.0,-999.0,78,0.00,,,0.00,WSDL version 420,2013-05-01 12:46:00,
2013-05-01 07:51:00,68.0,60.9,28.82,North,-999,-999.0,-999.0,78,0.00,,,0.00,WSDL version 420,2013-05-01 12:51:00,
2013-05-01 07:56:00,68.2,61.1,28.82,North,-999,-999.0,-999.0,78,0.00,,,0.00,WSDL version 420,2013-05-01 12:56:00,
2013-05-01 08:01:00,68.4,61.3,28.79,North,-999,-999.0,-999.0,78,0.00,,,0.00,WSDL version 420,2013-05-01 13:01:00,
2013-05-01 08:06:00,68.7,61.3,28.79,North,-999,-999.0,-999.0,77,0.00,,,0.00,WSDL version 420,2013-05-01 13:06:00,
2013-05-01 08:11:00,69.2,61.6,28.79,North,-999,-999.0,-999.0,76,0.00,,,0.00,WSDL version 420,2013-05-01 13:11:00,
2013-05-01 08:21:00,70.0,61.7,28.79,North,-999,-999.0,-999.0,75,0.00,,,0.00,WSDL version 420,2013-05-01 13:21:00,
2013-05-01 08:26:00,70.0,61.7,28.79,North,-999,-999.0,-999.0,75,0.00,,,0.00,WSDL version 420,2013-05-01 13:26:00,
2013-05-01 08:31:00,69.9,61.6,28.79,North,-999,-999.0,-999.0,75,0.00,,,0.00,WSDL version 420,2013-05-01 13:31:00,
2013-05-01 08:36:00,70.1,61.6,28.79,North,-999,-999.0,-999.0,74,0.00,,,0.00,WSDL version 420,2013-05-01 13:36:00,
2013-05-01 08:41:00,70.7,62.0,28.79,North,-999,-999.0,-999.0,74,0.00,,,0.00,WSDL version 420,2013-05-01 13:41:00,
2013-05-01 08:46:00,72.0,62.4,28.79,North,-999,-999.0,-999.0,72,0.00,,,0.00,WSDL version 420,2013-05-01 13:46:00,
2013-05-01 08:51:00,72.4,62.3,28.79,North,-999,-999.0,-999.0,70,0.00,,,0.00,WSDL version 420,2013-05-01 13:51:00,
2013-05-01 08:56:00,72.8,62.3,28.79,North,-999,-999.0,-999.0,69,0.00,,,0.00,WSDL version 420,2013-05-01 13:56:00,
2013-05-01 09:01:00,72.0,61.5,28.82,North,-999,-999.0,-999.0,70,0.00,,,0.00,WSDL version 420,2013-05-01 14:01:00,
2013-05-01 09:06:00,71.9,61.6,28.82,North,-999,-999.0,-999.0,70,0.00,,,0.00,WSDL version 420,2013-05-01 14:06:00,
2013-05-01 09:11:00,72.9,62.2,28.82,North,-999,-999.0,-999.0,68,0.00,,,0.00,WSDL version 420,2013-05-01 14:11:00,
2013-05-01 09:16:00,73.7,62.4,28.82,North,-999,-999.0,-999.0,68,0.00,,,0.00,WSDL version 420,2013-05-01 14:16:00,
2013-05-01 09:21:00,73.1,61.7,28.82,North,-999,-999.0,-999.0,68,0.00,,,0.00,WSDL version 420,2013-05-01 14:21:00,
2013-05-01 09:26:00,73.0,61.7,28.82,North,-999,-999.0,-999.0,68,0.00,,,0.00,WSDL version 420,2013-05-01 14:26:00,
2013-05-01 09:31:00,73.6,61.9,28.82,North,-999,-999.0,-999.0,67,0.00,,,0.00,WSDL version 420,2013-05-01 14:31:00,
2013-05-01 09:36:00,73.1,61.4,28.82,North,-999,-999.0,-999.0,67,0.00,,,0.00,WSDL version 420,2013-05-01 14:36:00,
2013-05-01 09:41:00,72.7,61.3,28.82,North,-999,-999.0,-999.0,68,0.00,,,0.00,WSDL version 420,2013-05-01 14:41:00,
2013-05-01 09:46:00,72.5,61.0,28.82,North,-999,-999.0,-999.0,67,0.00,,,0.00,WSDL version 420,2013-05-01 14:46:00,
2013-05-01 09:51:00,72.8,61.2,28.82,North,-999,-999.0,-999.0,67,0.00,,,0.00,WSDL version 420,2013-05-01 14:51:00,
2013-05-01 09:56:00,74.9,62.3,28.82,North,-999,-999.0,-999.0,64,0.00,,,0.00,WSDL version 420,2013-05-01 14:56:00,
2013-05-01 10:01:00,77.0,62.6,28.82,North,-999,-999.0,-999.0,61,0.00,,,0.00,WSDL version 420,2013-05-01 15:01:00,
2013-05-01 10:06:00,77.7,63.0,28.82,North,-999,-999.0,-999.0,60,0.00,,,0.00,WSDL version 420,2013-05-01 15:06:00,
2013-05-01 10:11:00,77.9,62.6,28.82,North,-999,-999.0,-999.0,59,0.00,,,0.00,WSDL version 420,2013-05-01 15:11:00,
2013-05-01 10:16:00,77.1,61.2,28.82,North,-999,-999.0,-999.0,59,0.00,,,0.00,WSDL version 420,2013-05-01 15:16:00,
2013-05-01 10:21:00,77.6,61.9,28.82,North,-999,-999.0,-999.0,57,0.00,,,0.00,WSDL version 420,2013-05-01 15:21:00,
2013-05-01 10:26:00,78.4,61.5,28.82,North,-999,-999.0,-999.0,55,0.00,,,0.00,WSDL version 420,2013-05-01 15:26:00,
2013-05-01 10:31:00,77.1,60.9,28.82,North,-999,-999.0,-999.0,58,0.00,,,0.00,WSDL version 420,2013-05-01 15:31:00,
2013-05-01 10:36:00,76.9,61.0,28.82,North,-999,-999.0,-999.0,57,0.00,,,0.00,WSDL version 420,2013-05-01 15:36:00,
2013-05-01 10:41:00,78.1,60.7,28.82,North,-999,-999.0,-999.0,55,0.00,,,0.00,WSDL version 420,2013-05-01 15:41:00,
2013-05-01 10:46:00,78.2,60.9,28.82,North,-999,-999.0,-999.0,56,0.00,,,0.00,WSDL version 420,2013-05-01 15:46:00,
2013-05-01 10:51:00,79.1,60.9,28.82,North,-999,-999.0,-999.0,54,0.00,,,0.00,WSDL version 420,2013-05-01 15:51:00,
2013-05-01 10:56:00,79.6,61.4,28.82,North,-999,-999.0,-999.0,54,0.00,,,0.00,WSDL version 420,2013-05-01 15:56:00,
2013-05-01 11:01:00,80.3,60.9,28.82,North,-999,-999.0,-999.0,51,0.00,,,0.00,WSDL version 420,2013-05-01 16:01:00,
2013-05-01 11:06:00,80.4,60.9,28.82,North,-999,-999.0,-999.0,51,0.00,,,0.00,WSDL version 420,2013-05-01 16:06:00,
2013-05-01 11:11:00,80.5,60.2,28.82,North,-999,-999.0,-999.0,50,0.00,,,0.00,WSDL version 420,2013-05-01 16:11:00,
2013-05-01 11:16:00,80.8,60.8,28.82,North,-999,-999.0,-999.0,50,0.00,,,0.00,WSDL version 420,2013-05-01 16:16:00,
2013-05-01 11:21:00,81.5,60.5,28.82,North,-999,-999.0,-999.0,50,0.00,,,0.00,WSDL version 420,2013-05-01 16:21:00,
2013-05-01 11:26:00,80.6,60.0,28.82,North,-999,-999.0,-999.0,49,0.00,,,0.00,WSDL version 420,2013-05-01 16:26:00,
2013-05-01 11:31:00,80.9,60.2,28.82,North,-999,-999.0,-999.0,49,0.00,,,0.00,WSDL version 420,2013-05-01 16:31:00,
2013-05-01 11:36:00,80.2,59.5,28.82,North,-999,-999.0,-999.0,49,0.00,,,0.00,WSDL version 420,2013-05-01 16:36:00,
2013-05-01 11:41:00,80.9,59.6,28.82,North,-999,-999.0,-999.0,48,0.00,,,0.00,WSDL version 420,2013-05-01 16:41:00,
2013-05-01 11:46:00,80.6,59.1,28.82,North,-999,-999.0,-999.0,49,0.00,,,0.00,WSDL version 420,2013-05-01 16:46:00,
2013-05-01 11:51:00,81.1,59.5,28.82,North,-999,-999.0,-999.0,47,0.00,,,0.00,WSDL version 420,2013-05-01 16:51:00,
2013-05-01 11:56:00,81.1,59.1,28.82,North,-999,-999.0,-999.0,47,0.00,,,0.00,WSDL version 420,2013-05-01 16:56:00,
2013-05-01 12:01:00,81.0,59.0,28.82,North,-999,-999.0,-999.0,47,0.00,,,0.00,WSDL version 420,2013-05-01 17:01:00,
2013-05-01 12:06:00,81.6,59.2,28.82,North,-999,-999.0,-999.0,47,0.00,,,0.00,WSDL version 420,2013-05-01 17:06:00,
2013-05-01 12:11:00,81.9,58.7,28.82,North,-999,-999.0,-999.0,46,0.00,,,0.00,WSDL version 420,2013-05-01 17:11:00,
2013-05-01 12:16:00,81.9,58.6,28.82,North,-999,-999.0,-999.0,44,0.00,,,0.00,WSDL version 420,2013-05-01 17:16:00,
2013-05-01 12:21:00,82.2,58.9,28.82,North,-999,-999.0,-999.0,46,0.00,,,0.00,WSDL version 420,2013-05-01 17:21:00,
2013-05-01 12:26:00,82.2,58.5,28.82,North,-999,-999.0,-999.0,45,0.00,,,0.00,WSDL version 420,2013-05-01 17:26:00,
2013-05-01 12:31:00,82.3,58.6,28.82,North,-999,-999.0,-999.0,44,0.00,,,0.00,WSDL version 420,2013-05-01 17:31:00,
2013-05-01 12:36:00,82.8,58.7,28.82,North,-999,-999.0,-999.0,43,0.00,,,0.00,WSDL version 420,2013-05-01 17:36:00,
2013-05-01 12:41:00,83.2,58.4,28.82,North,-999,-999.0,-999.0,43,0.00,,,0.00,WSDL version 420,2013-05-01 17:41:00,
2013-05-01 12:46:00,83.2,58.5,28.82,North,-999,-999.0,-999.0,44,0.00,,,0.00,WSDL version 420,2013-05-01 17:46:00,
2013-05-01 12:51:00,83.7,58.8,28.82,North,-999,-999.0,-999.0,42,0.00,,,0.00,WSDL version 420,2013-05-01 17:51:00,
2013-05-01 12:56:00,83.7,58.6,28.82,North,-999,-999.0,-999.0,43,0.00,,,0.00,WSDL version 420,2013-05-01 17:56:00,
2013-05-01 13:01:00,84.4,58.9,28.82,North,-999,-999.0,-999.0,42,0.00,,,0.00,WSDL version 420,2013-05-01 18:01:00,
2013-05-01 13:06:00,84.4,58.0,28.82,North,-999,-999.0,-999.0,40,0.00,,,0.00,WSDL version 420,2013-05-01 18:06:00,
2013-05-01 13:11:00,84.3,58.2,28.82,North,-999,-999.0,-999.0,42,0.00,,,0.00,WSDL version 420,2013-05-01 18:11:00,
2013-05-01 13:16:00,84.6,58.4,28.82,North,-999,-999.0,-999.0,41,0.00,,,0.00,WSDL version 420,2013-05-01 18:16:00,
2013-05-01 13:21:00,84.5,58.4,28.82,North,-999,-999.0,-999.0,41,0.00,,,0.00,WSDL version 420,2013-05-01 18:21:00,
2013-05-01 13:26:00,84.6,58.8,28.82,North,-999,-999.0,-999.0,42,0.00,,,0.00,WSDL version 420,2013-05-01 18:26:00,
2013-05-01 13:31:00,85.3,58.8,28.82,North,-999,-999.0,-999.0,40,0.00,,,0.00,WSDL version 420,2013-05-01 18:31:00,
2013-05-01 13:36:00,85.3,58.6,28.82,North,-999,-999.0,-999.0,39,0.00,,,0.00,WSDL version 420,2013-05-01 18:36:00,
2013-05-01 13:41:00,85.3,58.2,28.82,North,-999,-999.0,-999.0,40,0.00,,,0.00,WSDL version 420,2013-05-01 18:41:00,
2013-05-01 13:46:00,84.8,57.7,28.82,North,-999,-999.0,-999.0,40,0.00,,,0.00,WSDL version 420,2013-05-01 18:46:00,
2013-05-01 13:51:00,85.3,58.2,28.82,North,-999,-999.0,-999.0,40,0.00,,,0.00,WSDL version 420,2013-05-01 18:51:00,
2013-05-01 13:56:00,85.0,58.0,28.82,North,-999,-999.0,-999.0,41,0.00,,,0.00,WSDL version 420,2013-05-01 18:56:00,
2013-05-01 14:01:00,84.3,57.2,28.82,North,-999,-999.0,-999.0,40,0.00,,,0.00,WSDL version 420,2013-05-01 19:01:00,
2013-05-01 14:06:00,83.8,57.4,28.82,North,-999,-999.0,-999.0,41,0.00,,,0.00,WSDL version 420,2013-05-01 19:06:00,
2013-05-01 14:11:00,84.3,57.7,28.82,North,-999,-999.0,-999.0,40,0.00,,,0.00,WSDL version 420,2013-05-01 19:11:00,
2013-05-01 14:16:00,83.9,57.4,28.82,North,-999,-999.0,-999.0,41,0.00,,,0.00,WSDL version 420,2013-05-01 19:16:00,
2013-05-01 14:21:00,83.9,57.6,28.82,North,-999,-999.0,-999.0,40,0.00,,,0.00,WSDL version 420,2013-05-01 19:21:00,
2013-05-01 14:26:00,84.5,58.1,28.82,North,-999,-999.0,-999.0,40,0.00,,,0.00,WSDL version 420,2013-05-01 19:26:00,
2013-05-01 14:31:00,85.0,58.1,28.82,North,-999,-999.0,-999.0,40,0.00,,,0.00,WSDL version 420,2013-05-01 19:31:00,
2013-05-01 14:36:00,84.6,57.5,28.82,North,-999,-999.0,-999.0,40,0.00,,,0.00,WSDL version 420,2013-05-01 19:36:00,
2013-05-01 14:41:00,84.1,57.3,28.82,North,-999,-999.0,-999.0,40,0.00,,,0.00,WSDL version 420,2013-05-01 19:41:00,
2013-05-01 14:46:00,84.3,57.6,28.82,North,-999,-999.0,-999.0,41,0.00,,,0.00,WSDL version 420,2013-05-01 19:46:00,
2013-05-01 14:51:00,84.4,57.7,28.82,North,-999,-999.0,-999.0,40,0.00,,,0.00,WSDL version 420,2013-05-01 19:51:00,
2013-05-01 14:56:00,84.2,57.4,28.82,North,-999,-999.0,-999.0,41,0.00,,,0.00,WSDL version 420,2013-05-01 19:56:00,
2013-05-01 15:01:00,84.1,57.6,28.82,North,-999,-999.0,-999.0,41,0.00,,,0.00,WSDL version 420,2013-05-01 20:01:00,
2013-05-01 15:06:00,84.6,58.0,28.82,North,-999,-999.0,-999.0,40,0.00,,,0.00,WSDL version 420,2013-05-01 20:06:00,
2013-05-01 15:11:00,84.7,57.6,28.82,North,-999,-999.0,-999.0,40,0.00,,,0.00,WSDL version 420,2013-05-01 20:11:00,
2013-05-01 15:16:00,84.2,57.4,28.82,North,-999,-999.0,-999.0,41,0.00,,,0.00,WSDL version 420,2013-05-01 20:16:00,
2013-05-01 15:21:00,84.2,57.8,28.82,North,-999,-999.0,-999.0,41,0.00,,,0.00,WSDL version 420,2013-05-01 20:21:00,
2013-05-01 15:26:00,84.6,57.9,28.82,North,-999,-999.0,-999.0,41,0.00,,,0.00,WSDL version 420,2013-05-01 20:26:00,
2013-05-01 15:31:00,84.9,58.0,28.82,North,-999,-999.0,-999.0,40,0.00,,,0.00,WSDL version 420,2013-05-01 20:31:00,
2013-05-01 15:36:00,85.1,58.1,28.82,North,-999,-999.0,-999.0,40,0.00,,,0.00,WSDL version 420,2013-05-01 20:36:00,
2013-05-01 15:41:00,85.5,58.5,28.82,North,-999,-999.0,-999.0,40,0.00,,,0.00,WSDL version 420,2013-05-01 20:41:00,
2013-05-01 15:46:00,85.2,58.0,28.79,North,-999,-999.0,-999.0,39,0.00,,,0.00,WSDL version 420,2013-05-01 20:46:00,
2013-05-01 15:51:00,84.5,57.3,28.79,North,-999,-999.0,-999.0,40,0.00,,,0.00,WSDL version 420,2013-05-01 20:51:00,
2013-05-01 15:56:00,84.3,57.4,28.79,North,-999,-999.0,-999.0,40,0.00,,,0.00,WSDL version 420,2013-05-01 20:56:00,
2013-05-01 16:01:00,84.4,57.5,28.79,North,-999,-999.0,-999.0,40,0.00,,,0.00,WSDL version 420,2013-05-01 21:01:00,
2013-05-01 16:06:00,84.8,57.8,28.79,North,-999,-999.0,-999.0,40,0.00,,,0.00,WSDL version 420,2013-05-01 21:06:00,
2013-05-01 16:11:00,84.9,57.8,28.79,North,-999,-999.0,-999.0,40,0.00,,,0.00,WSDL version 420,2013-05-01 21:11:00,
2013-05-01 16:16:00,85.0,58.0,28.79,North,-999,-999.0,-999.0,40,0.00,,,0.00,WSDL version 420,2013-05-01 21:16:00,
2013-05-01 16:21:00,85.5,58.4,28.79,North,-999,-999.0,-999.0,40,0.00,,,0.00,WSDL version 420,2013-05-01 21:21:00,
2013-05-01 16:26:00,85.7,58.5,28.79,North,-999,-999.0,-999.0,40,0.00,,,0.00,WSDL version 420,2013-05-01 21:26:00,
2013-05-01 16:31:00,85.7,58.2,28.79,North,-999,-999.0,-999.0,39,0.00,,,0.00,WSDL version 420,2013-05-01 21:31:00,
2013-05-01 16:36:00,85.6,58.1,28.79,North,-999,-999.0,-999.0,39,0.00,,,0.00,WSDL version 420,2013-05-01 21:36:00,
2013-05-01 16:41:00,85.6,58.0,28.79,North,-999,-999.0,-999.0,39,0.00,,,0.00,WSDL version 420,2013-05-01 21:41:00,
2013-05-01 16:46:00,85.6,58.1,28.76,North,-999,-999.0,-999.0,40,0.00,,,0.00,WSDL version 420,2013-05-01 21:46:00,
2013-05-01 16:51:00,85.6,57.9,28.76,North,-999,-999.0,-999.0,39,0.00,,,0.00,WSDL version 420,2013-05-01 21:51:00,
2013-05-01 16:56:00,85.5,57.8,28.76,North,-999,-999.0,-999.0,39,0.00,,,0.00,WSDL version 420,2013-05-01 21:56:00,
2013-05-01 17:01:00,85.2,57.4,28.76,North,-999,-999.0,-999.0,39,0.00,,,0.00,WSDL version 420,2013-05-01 22:01:00,
2013-05-01 17:06:00,85.2,57.5,28.76,North,-999,-999.0,-999.0,39,0.00,,,0.00,WSDL version 420,2013-05-01 22:06:00,
2013-05-01 17:11:00,84.8,57.3,28.76,North,-999,-999.0,-999.0,40,0.00,,,0.00,WSDL version 420,2013-05-01 22:11:00,
2013-05-01 17:16:00,84.4,56.7,28.79,North,-999,-999.0,-999.0,39,0.00,,,0.00,WSDL version 420,2013-05-01 22:16:00,
2013-05-01 17:21:00,84.7,57.7,28.79,North,-999,-999.0,-999.0,40,0.00,,,0.00,WSDL version 420,2013-05-01 22:21:00,
2013-05-01 17:26:00,85.0,57.3,28.79,North,-999,-999.0,-999.0,39,0.00,,,0.00,WSDL version 420,2013-05-01 22:26:00,
2013-05-01 17:31:00,84.7,57.5,28.76,North,-999,-999.0,-999.0,39,0.00,,,0.00,WSDL version 420,2013-05-01 22:31:00,
2013-05-01 17:36:00,84.7,57.5,28.76,North,-999,-999.0,-999.0,40,0.00,,,0.00,WSDL version 420,2013-05-01 22:36:00,
2013-05-01 17:41:00,84.7,57.7,28.76,North,-999,-999.0,-999.0,40,0.00,,,0.00,WSDL version 420,2013-05-01 22:41:00,
2013-05-01 17:46:00,84.7,57.8,28.76,North,-999,-999.0,-999.0,40,0.00,,,0.00,WSDL version 420,2013-05-01 22:46:00,
2013-05-01 17:51:00,84.4,57.2,28.76,North,-999,-999.0,-999.0,40,0.00,,,0.00,WSDL version 420,2013-05-01 22:51:00,
2013-05-01 17:56:00,84.0,57.1,28.76,North,-999,-999.0,-999.0,40,0.00,,,0.00,WSDL version 420,2013-05-01 22:56:00,
2013-05-01 18:01:00,83.8,56.9,28.76,North,-999,-999.0,-999.0,40,0.00,,,0.00,WSDL version 420,2013-05-01 23:01:00,
2013-05-01 18:06:00,83.3,56.7,28.76,North,-999,-999.0,-999.0,41,0.00,,,0.00,WSDL version 420,2013-05-01 23:06:00,
2013-05-01 18:11:00,83.0,56.9,28.76,North,-999,-999.0,-999.0,41,0.00,,,0.00,WSDL version 420,2013-05-01 23:11:00,
2013-05-01 18:16:00,83.0,56.9,28.79,North,-999,-999.0,-999.0,41,0.00,,,0.00,WSDL version 420,2013-05-01 23:16:00,
2013-05-01 18:21:00,83.0,56.9,28.79,North,-999,-999.0,-999.0,41,0.00,,,0.00,WSDL version 420,2013-05-01 23:21:00,
2013-05-01 18:26:00,82.8,56.7,28.79,North,-999,-999.0,-999.0,41,0.00,,,0.00,WSDL version 420,2013-05-01 23:26:00,
2013-05-01 18:31:00,82.9,56.8,28.79,North,-999,-999.0,-999.0,41,0.00,,,0.00,WSDL version 420,2013-05-01 23:31:00,
2013-05-01 18:36:00,82.9,56.8,28.79,North,-999,-999.0,-999.0,41,0.00,,,0.00,WSDL version 420,2013-05-01 23:36:00,
2013-05-01 18:41:00,82.8,56.7,28.79,North,-999,-999.0,-999.0,41,0.00,,,0.00,WSDL version 420,2013-05-01 23:41:00,
2013-05-01 18:46:00,82.8,56.7,28.79,North,-999,-999.0,-999.0,41,0.00,,,0.00,WSDL version 420,2013-05-01 23:46:00,
2013-05-01 18:51:00,82.5,56.8,28.79,North,-999,-999.0,-999.0,42,0.00,,,0.00,WSDL version 420,2013-05-01 23:51:00,
2013-05-01 18:56:00,82.2,56.9,28.79,North,-999,-999.0,-999.0,42,0.00,,,0.00,WSDL version 420,2013-05-01 23:56:00,
2013-05-01 19:01:00,82.1,56.8,28.79,North,-999,-999.0,-999.0,42,0.00,,,0.00,WSDL version 420,2013-05-02 00:01:00,
2013-05-01 19:06:00,82.0,56.8,28.79,North,-999,-999.0,-999.0,43,0.00,,,0.00,WSDL version 420,2013-05-02 00:06:00,
2013-05-01 19:11:00,81.8,57.2,28.79,North,-999,-999.0,-999.0,43,0.00,,,0.00,WSDL version 420,2013-05-02 00:11:00,
2013-05-01 19:16:00,81.6,57.0,28.79,North,-999,-999.0,-999.0,43,0.00,,,0.00,WSDL version 420,2013-05-02 00:16:00,
2013-05-01 19:21:00,81.4,57.1,28.79,North,-999,-999.0,-999.0,43,0.00,,,0.00,WSDL version 420,2013-05-02 00:21:00,
2013-05-01 19:26:00,81.2,57.1,28.79,North,-999,-999.0,-999.0,44,0.00,,,0.00,WSDL version 420,2013-05-02 00:26:00,
2013-05-01 19:31:00,81.0,57.0,28.79,North,-999,-999.0,-999.0,44,0.00,,,0.00,WSDL version 420,2013-05-02 00:31:00,
2013-05-01 19:36:00,80.7,56.8,28.79,North,-999,-999.0,-999.0,44,0.00,,,0.00,WSDL version 420,2013-05-02 00:36:00,
2013-05-01 19:41:00,80.5,56.9,28.79,North,-999,-999.0,-999.0,45,0.00,,,0.00,WSDL version 420,2013-05-02 00:41:00,
2013-05-01 19:46:00,80.2,57.0,28.79,North,-999,-999.0,-999.0,45,0.00,,,0.00,WSDL version 420,2013-05-02 00:46:00,
2013-05-01 19:51:00,79.9,56.7,28.79,North,-999,-999.0,-999.0,45,0.00,,,0.00,WSDL version 420,2013-05-02 00:51:00,
2013-05-01 19:56:00,79.7,56.6,28.79,North,-999,-999.0,-999.0,45,0.00,,,0.00,WSDL version 420,2013-05-02 00:56:00,
2013-05-01 20:01:00,79.4,56.7,28.79,North,-999,-999.0,-999.0,46,0.00,,,0.00,WSDL version 420,2013-05-02 01:01:00,
2013-05-01 20:06:00,79.1,56.5,28.79,North,-999,-999.0,-999.0,46,0.00,,,0.00,WSDL version 420,2013-05-02 01:06:00,
2013-05-01 20:11:00,78.9,56.4,28.79,North,-999,-999.0,-999.0,46,0.00,,,0.00,WSDL version 420,2013-05-02 01:11:00,
2013-05-01 20:16:00,78.6,56.7,28.82,North,-999,-999.0,-999.0,47,0.00,,,0.00,WSDL version 420,2013-05-02 01:16:00,
2013-05-01 20:21:00,78.3,56.4,28.82,North,-999,-999.0,-999.0,47,0.00,,,0.00,WSDL version 420,2013-05-02 01:21:00,
2013-05-01 20:26:00,78.1,56.3,28.82,North,-999,-999.0,-999.0,47,0.00,,,0.00,WSDL version 420,2013-05-02 01:26:00,
2013-05-01 20:31:00,77.9,56.0,28.82,North,-999,-999.0,-999.0,47,0.00,,,0.00,WSDL version 420,2013-05-02 01:31:00,
2013-05-01 20:36:00,77.6,56.3,28.82,North,-999,-999.0,-999.0,48,0.00,,,0.00,WSDL version 420,2013-05-02 01:36:00,
2013-05-01 20:41:00,77.4,56.2,28.82,North,-999,-999.0,-999.0,48,0.00,,,0.00,WSDL version 420,2013-05-02 01:41:00,
2013-05-01 20:46:00,77.2,56.0,28.82,North,-999,-999.0,-999.0,48,0.00,,,0.00,WSDL version 420,2013-05-02 01:46:00,
2013-05-01 20:51:00,77.0,56.0,28.82,North,-999,-999.0,-999.0,49,0.00,,,0.00,WSDL version 420,2013-05-02 01:51:00,
2013-05-01 20:56:00,76.8,56.2,28.82,North,-999,-999.0,-999.0,49,0.00,,,0.00,WSDL version 420,2013-05-02 01:56:00,
2013-05-01 21:01:00,76.6,56.0,28.82,North,-999,-999.0,-999.0,49,0.00,,,0.00,WSDL version 420,2013-05-02 02:01:00,
2013-05-01 21:06:00,76.4,56.3,28.82,North,-999,-999.0,-999.0,50,0.00,,,0.00,WSDL version 420,2013-05-02 02:06:00,
2013-05-01 21:11:00,76.1,56.2,28.82,North,-999,-999.0,-999.0,50,0.00,,,0.00,WSDL version 420,2013-05-02 02:11:00,
2013-05-01 21:16:00,75.9,56.4,28.82,North,-999,-999.0,-999.0,51,0.00,,,0.00,WSDL version 420,2013-05-02 02:16:00,
2013-05-01 21:21:00,75.7,56.3,28.82,North,-999,-999.0,-999.0,51,0.00,,,0.00,WSDL version 420,2013-05-02 02:21:00,
2013-05-01 21:26:00,75.6,56.2,28.82,North,-999,-999.0,-999.0,51,0.00,,,0.00,WSDL version 420,2013-05-02 02:26:00,
2013-05-01 21:31:00,75.4,56.0,28.85,North,-999,-999.0,-999.0,51,0.00,,,0.00,WSDL version 420,2013-05-02 02:31:00,
2013-05-01 21:36:00,75.4,56.4,28.85,North,-999,-999.0,-999.0,52,0.00,,,0.00,WSDL version 420,2013-05-02 02:36:00,
2013-05-01 21:46:00,75.2,56.4,28.85,North,-999,-999.0,-999.0,52,0.00,,,0.00,WSDL version 420,2013-05-02 02:46:00,
2013-05-01 21:51:00,75.0,56.2,28.85,North,-999,-999.0,-999.0,52,0.00,,,0.00,WSDL version 420,2013-05-02 02:51:00,
2013-05-01 21:56:00,75.0,56.2,28.85,North,-999,-999.0,-999.0,52,0.00,,,0.00,WSDL version 420,2013-05-02 02:56:00,
2013-05-01 22:01:00,74.8,56.1,28.88,North,-999,-999.0,-999.0,52,0.00,,,0.00,WSDL version 420,2013-05-02 03:01:00,
2013-05-01 22:06:00,74.7,56.2,28.88,North,-999,-999.0,-999.0,53,0.00,,,0.00,WSDL version 420,2013-05-02 03:06:00,
2013-05-01 22:11:00,74.7,56.4,28.88,North,-999,-999.0,-999.0,53,0.00,,,0.00,WSDL version 420,2013-05-02 03:11:00,
2013-05-01 22:16:00,74.5,56.2,28.88,North,-999,-999.0,-999.0,53,0.00,,,0.00,WSDL version 420,2013-05-02 03:16:00,
2013-05-01 22:21:00,74.4,56.2,28.88,North,-999,-999.0,-999.0,53,0.00,,,0.00,WSDL version 420,2013-05-02 03:21:00,
2013-05-01 22:26:00,74.3,56.1,28.88,North,-999,-999.0,-999.0,53,0.00,,,0.00,WSDL version 420,2013-05-02 03:26:00,
2013-05-01 22:31:00,74.2,56.0,28.91,North,-999,-999.0,-999.0,53,0.00,,,0.00,WSDL version 420,2013-05-02 03:31:00,
2013-05-01 22:36:00,74.1,55.9,28.91,North,-999,-999.0,-999.0,53,0.00,,,0.00,WSDL version 420,2013-05-02 03:36:00,
2013-05-01 22:41:00,74.1,56.3,28.91,North,-999,-999.0,-999.0,54,0.00,,,0.00,WSDL version 420,2013-05-02 03:41:00,
2013-05-01 22:46:00,74.1,56.4,28.91,North,-999,-999.0,-999.0,54,0.00,,,0.00,WSDL version 420,2013-05-02 03:46:00,
2013-05-01 22:51:00,74.1,56.4,28.91,North,-999,-999.0,-999.0,54,0.00,,,0.00,WSDL version 420,2013-05-02 03:51:00,
2013-05-01 22:56:00,74.0,56.3,28.91,North,-999,-999.0,-999.0,54,0.00,,,0.00,WSDL version 420,2013-05-02 03:56:00,
2013-05-01 23:01:00,73.9,56.2,28.91,North,-999,-999.0,-999.0,54,0.00,,,0.00,WSDL version 420,2013-05-02 04:01:00,
2013-05-01 23:06:00,73.8,56.1,28.91,North,-999,-999.0,-999.0,54,0.00,,,0.00,WSDL version 420,2013-05-02 04:06:00,
2013-05-01 23:11:00,73.6,56.0,28.91,North,-999,-999.0,-999.0,54,0.00,,,0.00,WSDL version 420,2013-05-02 04:11:00,
2013-05-01 23:16:00,73.5,55.9,28.91,North,-999,-999.0,-999.0,54,0.00,,,0.00,WSDL version 420,2013-05-02 04:16:00,
2013-05-01 23:21:00,73.4,55.8,28.91,North,-999,-999.0,-999.0,54,0.00,,,0.00,WSDL version 420,2013-05-02 04:21:00,
2013-05-01 23:26:00,73.4,55.8,28.91,North,-999,-999.0,-999.0,55,0.00,,,0.00,WSDL version 420,2013-05-02 04:26:00,
2013-05-01 23:31:00,73.2,56.1,28.91,North,-999,-999.0,-999.0,55,0.00,,,0.00,WSDL version 420,2013-05-02 04:31:00,
2013-05-01 23:36:00,73.1,56.0,28.91,North,-999,-999.0,-999.0,55,0.00,,,0.00,WSDL version 420,2013-05-02 04:36:00,
2013-05-01 23:41:00,73.0,55.9,28.91,North,-999,-999.0,-999.0,55,0.00,,,0.00,WSDL version 420,2013-05-02 04:41:00,
2013-05-01 23:46:00,72.8,55.7,28.91,North,-999,-999.0,-999.0,55,0.00,,,0.00,WSDL version 420,2013-05-02 04:46:00,
2013-05-01 23:51:00,72.7,55.6,28.91,North,-999,-999.0,-999.0,55,0.00,,,0.00,WSDL version 420,2013-05-02 04:51:00,
2013-05-01 23:56:00,72.5,55.6,28.91,North,-999,-999.0,-999.0,56,0.00,,,0.00,WSDL version 420,2013-05-02 04:56:00,